Time;durP1;ratioP1;P1;durP2;ratioP2;P2;SDS_P1;SDS_P2;PMS_P1;PMS_P2;Temp;Humidity;BMP_temperature;BMP_pressure;BME280_temperature;BME280_humidity;BME280_pressure;Samples;Min_cycle;Max_cycle;Signal;HPM_P1;HPM_P2
2022/10/10 00:01:50;;;;;;;8.30;3.17;;;13.00;88.80;;;;;;5031957;28;20037;-84
2022/10/10 00:04:16;;;;;;;5.40;2.70;;;13.00;88.70;;;;;;5003543;28;20018;-85
2022/10/10 00:06:41;;;;;;;8.27;2.97;;;13.00;89.00;;;;;;5013843;28;20017;-85
2022/10/10 00:09:07;;;;;;;6.85;2.70;;;13.00;89.00;;;;;;5012753;28;20029;-85
2022/10/10 00:11:33;;;;;;;5.25;2.60;;;12.90;88.90;;;;;;5016085;28;20475;-85
2022/10/10 00:14:17;;;;;;;7.90;3.10;;;12.90;88.90;;;;;;5014812;28;20049;-85
2022/10/10 00:16:43;;;;;;;7.60;3.10;;;12.90;89.50;;;;;;5034400;28;20489;-85
2022/10/10 00:19:09;;;;;;;6.88;2.53;;;12.90;89.50;;;;;;5028923;28;20029;-85
2022/10/10 00:21:34;;;;;;;8.82;3.60;;;12.80;89.50;;;;;;5003216;28;20146;-85
2022/10/10 00:24:00;;;;;;;7.70;2.60;;;12.80;89.50;;;;;;5015807;28;20046;-84
2022/10/10 00:26:26;;;;;;;5.57;2.60;;;12.70;89.30;;;;;;5019228;28;20049;-85
2022/10/10 00:28:52;;;;;;;7.18;3.00;;;12.70;89.60;;;;;;5005107;28;20112;-85
2022/10/10 00:31:17;;;;;;;5.18;2.65;;;12.60;89.70;;;;;;4988399;28;20114;-84
2022/10/10 00:33:44;;;;;;;8.02;2.47;;;12.60;89.70;;;;;;4998251;28;20022;-84
2022/10/10 00:36:09;;;;;;;5.82;3.08;;;12.60;89.90;;;;;;5011776;28;20065;-84
2022/10/10 00:38:35;;;;;;;5.88;2.88;;;12.60;90.10;;;;;;5008205;28;20018;-85
2022/10/10 00:41:47;;;;;;;6.15;3.17;;;12.60;90.30;;;;;;4977027;28;20069;-85
2022/10/10 00:44:14;;;;;;;9.52;3.00;;;12.60;90.40;;;;;;4984504;23;20068;-83
2022/10/10 00:46:41;;;;;;;7.80;3.80;;;12.60;90.40;;;;;;4916629;29;20038;-84
2022/10/10 00:49:18;;;;;;;7.95;3.00;;;12.60;90.50;;;;;;4947811;29;20431;-83
2022/10/10 00:51:47;;;;;;;7.78;2.90;;;12.60;90.50;;;;;;4947969;28;20031;-84
2022/10/10 00:54:16;;;;;;;9.10;3.53;;;12.60;90.70;;;;;;4964411;28;20047;-84
2022/10/10 00:56:51;;;;;;;7.93;2.72;;;12.60;90.80;;;;;;4948838;28;20027;-84
2022/10/10 00:59:18;;;;;;;7.05;3.28;;;12.60;90.80;;;;;;4948873;28;20488;-83
2022/10/10 01:01:45;;;;;;;7.82;2.72;;;12.60;90.90;;;;;;4934196;29;20023;-84
2022/10/10 01:04:36;;;;;;;7.32;3.05;;;12.60;90.90;;;;;;4933857;29;20032;-84
2022/10/10 01:07:08;;;;;;;6.30;2.80;;;12.60;91.00;;;;;;4932410;29;20323;-84
2022/10/10 01:09:37;;;;;;;5.57;2.90;;;12.60;90.90;;;;;;4964458;28;20034;-84
2022/10/10 01:12:16;;;;;;;5.60;3.13;;;12.60;90.90;;;;;;4964579;28;20167;-84
2022/10/10 01:15:04;;;;;;;6.03;2.92;;;12.60;91.00;;;;;;4965174;28;20031;-84
2022/10/10 01:17:39;;;;;;;8.02;3.38;;;12.60;91.00;;;;;;4946354;29;20019;-83
2022/10/10 01:20:32;;;;;;;5.65;3.10;;;12.50;91.00;;;;;;4945641;28;20481;-84
2022/10/10 01:23:04;;;;;;;6.00;2.70;;;12.50;91.00;;;;;;4961298;28;20023;-83
2022/10/10 01:25:59;;;;;;;12.35;3.30;;;12.50;91.00;;;;;;4945518;29;20019;-84
2022/10/10 01:28:42;;;;;;;6.80;3.58;;;12.50;91.10;;;;;;4923285;29;20031;-83
2022/10/10 01:31:11;;;;;;;8.45;3.08;;;12.40;91.20;;;;;;4948665;28;20023;-83
2022/10/10 01:33:59;;;;;;;7.80;3.00;;;12.40;91.30;;;;;;4934602;29;20461;-83
2022/10/10 01:36:30;;;;;;;8.63;2.95;;;12.40;91.40;;;;;;4964295;28;20038;-83
2022/10/10 01:39:08;;;;;;;11.93;4.40;;;12.40;91.40;;;;;;4963541;28;20027;-83
2022/10/10 01:41:44;;;;;;;7.85;3.03;;;12.40;91.50;;;;;;4932315;29;20031;-83
2022/10/10 01:44:09;;;;;;;6.65;3.08;;;12.40;91.50;;;;;;4982787;28;20062;-83
2022/10/10 01:46:35;;;;;;;6.88;3.58;;;12.40;91.50;;;;;;4971149;28;20385;-83
2022/10/10 01:49:01;;;;;;;6.90;3.05;;;12.40;91.50;;;;;;4939379;28;20472;-83
2022/10/10 01:52:09;;;;;;;7.65;3.17;;;12.30;91.60;;;;;;4941456;28;20105;-83
2022/10/10 01:54:49;;;;;;;6.72;3.28;;;12.30;91.60;;;;;;4960097;28;20035;-83
2022/10/10 01:57:14;;;;;;;9.20;3.38;;;12.30;91.70;;;;;;4954862;28;20057;-83
2022/10/10 02:00:08;;;;;;;6.82;3.25;;;12.30;91.80;;;;;;4954898;28;20023;-84
2022/10/10 02:02:56;;;;;;;7.07;2.90;;;12.20;91.80;;;;;;4938291;28;20075;-83
2022/10/10 02:05:49;;;;;;;8.27;3.60;;;12.20;91.90;;;;;;4958018;28;20023;-83
2022/10/10 02:08:32;;;;;;;9.52;3.33;;;12.20;91.90;;;;;;4953325;28;20989;-83
2022/10/10 02:11:07;;;;;;;7.05;3.05;;;12.20;92.00;;;;;;4954757;28;20101;-83
2022/10/10 02:13:43;;;;;;;7.00;2.95;;;12.10;92.40;;;;;;4954217;28;20023;-82
2022/10/10 02:16:19;;;;;;;5.68;2.83;;;12.10;92.20;;;;;;4955197;28;20023;-82
2022/10/10 02:18:48;;;;;;;7.68;3.45;;;12.10;92.30;;;;;;4985022;28;20025;-82
2022/10/10 02:21:14;;;;;;;5.57;3.20;;;12.10;92.30;;;;;;4954625;28;20034;-82
2022/10/10 02:23:42;;;;;;;6.32;2.85;;;12.10;92.40;;;;;;4971520;28;20031;-83
2022/10/10 02:26:10;;;;;;;8.77;3.42;;;12.10;92.40;;;;;;4987050;28;20495;-82
2022/10/10 02:28:48;;;;;;;7.70;3.08;;;12.00;92.50;;;;;;4938269;28;20122;-82
2022/10/10 02:31:31;;;;;;;6.78;3.40;;;12.00;92.60;;;;;;4953689;28;20085;-82
2022/10/10 02:34:05;;;;;;;10.20;3.25;;;12.00;92.60;;;;;;4955894;28;20030;-82
2022/10/10 02:36:31;;;;;;;8.90;3.20;;;12.00;92.60;;;;;;4959554;28;20029;-82
2022/10/10 02:38:58;;;;;;;6.10;3.35;;;12.00;92.70;;;;;;4962336;28;20054;-82
2022/10/10 02:41:41;;;;;;;7.03;3.50;;;12.00;92.80;;;;;;4938794;28;20101;-83
2022/10/10 02:44:07;;;;;;;7.85;3.30;;;11.90;92.80;;;;;;4966284;28;20050;-82
2022/10/10 02:46:33;;;;;;;5.80;2.80;;;11.90;92.90;;;;;;4938130;28;20053;-82
2022/10/10 02:49:00;;;;;;;7.13;3.30;;;11.90;92.90;;;;;;4957980;28;20035;-82
2022/10/10 02:51:26;;;;;;;8.27;3.53;;;11.90;93.00;;;;;;4954842;28;20113;-83
2022/10/10 02:53:51;;;;;;;7.30;3.10;;;11.90;93.00;;;;;;4939353;28;20552;-82
2022/10/10 02:56:17;;;;;;;6.18;3.10;;;11.90;93.10;;;;;;4959121;28;20030;-82
2022/10/10 02:58:43;;;;;;;7.93;3.17;;;11.90;93.10;;;;;;4946763;28;20134;-82
2022/10/10 03:01:09;;;;;;;6.97;3.10;;;11.90;93.10;;;;;;4940963;28;20038;-82
2022/10/10 03:03:35;;;;;;;6.93;2.95;;;11.90;93.10;;;;;;4957327;28;20078;-83
2022/10/10 03:06:01;;;;;;;5.15;3.20;;;11.90;93.20;;;;;;4957310;28;20034;-82
2022/10/10 03:08:27;;;;;;;6.57;3.13;;;11.90;93.20;;;;;;4957318;28;20082;-84
2022/10/10 03:10:58;;;;;;;9.38;3.30;;;11.80;93.20;;;;;;4942182;28;20059;-83
2022/10/10 03:13:25;;;;;;;8.70;3.30;;;11.80;93.30;;;;;;4972506;28;20034;-83
2022/10/10 03:15:51;;;;;;;8.68;3.13;;;11.80;93.30;;;;;;4967217;28;20026;-82
2022/10/10 03:18:17;;;;;;;9.20;3.58;;;11.80;93.40;;;;;;4959690;28;20015;-82
2022/10/10 03:21:00;;;;;;;9.40;4.53;;;11.70;93.40;;;;;;4940103;28;20446;-82
2022/10/10 03:23:26;;;;;;;6.68;3.60;;;11.70;93.40;;;;;;4976698;28;20445;-85
2022/10/10 03:25:52;;;;;;;7.15;3.15;;;11.70;93.50;;;;;;4944832;28;20028;-88
2022/10/10 03:28:18;;;;;;;4.78;3.20;;;11.70;93.60;;;;;;4960104;28;20062;-86
2022/10/10 03:30:43;;;;;;;7.50;3.60;;;11.70;93.70;;;;;;4964202;28;20472;-86
2022/10/10 03:33:09;;;;;;;7.03;3.90;;;11.70;93.80;;;;;;4958420;28;20077;-86
2022/10/10 03:35:35;;;;;;;9.73;3.58;;;11.60;93.90;;;;;;4964154;28;20090;-86
2022/10/10 03:38:01;;;;;;;7.05;3.60;;;11.60;93.90;;;;;;4974113;28;20022;-86
2022/10/10 03:40:28;;;;;;;7.07;3.17;;;11.60;93.90;;;;;;4958003;28;20027;-86
2022/10/10 03:42:54;;;;;;;4.75;3.22;;;11.60;94.00;;;;;;4938138;28;20095;-86
2022/10/10 03:45:20;;;;;;;5.88;3.10;;;11.60;93.90;;;;;;4953616;28;20608;-86
2022/10/10 03:47:45;;;;;;;8.93;3.83;;;11.50;94.00;;;;;;4968539;28;20019;-86
2022/10/10 03:50:11;;;;;;;8.25;3.45;;;11.50;94.00;;;;;;4968988;28;20358;-86
2022/10/10 03:52:37;;;;;;;6.55;3.10;;;11.50;94.10;;;;;;4937501;29;20027;-87
2022/10/10 03:55:03;;;;;;;6.25;3.20;;;11.50;94.10;;;;;;4954241;28;20420;-86
2022/10/10 03:57:28;;;;;;;6.07;3.65;;;11.40;94.20;;;;;;4968938;28;20119;-86
2022/10/10 03:59:54;;;;;;;6.00;3.67;;;11.50;94.30;;;;;;4944993;28;20114;-86
2022/10/10 04:02:20;;;;;;;8.90;3.70;;;11.40;94.30;;;;;;4938819;29;20403;-86
2022/10/10 04:04:45;;;;;;;6.07;3.50;;;11.40;94.30;;;;;;4954582;28;20584;-84
2022/10/10 04:07:11;;;;;;;7.25;3.28;;;11.40;94.30;;;;;;4937026;29;20094;-84
2022/10/10 04:09:37;;;;;;;8.85;3.53;;;11.40;94.30;;;;;;4921065;29;20042;-84
2022/10/10 04:12:03;;;;;;;6.18;3.92;;;11.30;94.60;;;;;;4968016;28;20034;-84
2022/10/10 04:14:28;;;;;;;6.57;3.05;;;11.30;94.40;;;;;;4969779;28;20043;-84
2022/10/10 04:16:54;;;;;;;7.40;3.55;;;11.20;94.40;;;;;;4968546;28;20065;-84
2022/10/10 04:19:20;;;;;;;5.05;3.13;;;11.20;94.50;;;;;;4937664;29;20023;-84
2022/10/10 04:21:45;;;;;;;7.28;3.78;;;11.20;94.50;;;;;;4936305;29;20090;-84
2022/10/10 04:24:11;;;;;;;7.03;3.30;;;11.20;94.50;;;;;;4937329;29;20020;-83
2022/10/10 04:26:37;;;;;;;6.85;3.80;;;11.20;94.60;;;;;;4951832;29;20035;-83
2022/10/10 04:29:03;;;;;;;9.57;3.92;;;11.10;94.60;;;;;;4937042;29;20023;-84
2022/10/10 04:31:28;;;;;;;7.35;3.50;;;11.10;94.60;;;;;;4952870;29;20117;-85
2022/10/10 04:33:54;;;;;;;6.50;3.58;;;11.10;94.60;;;;;;4939796;28;20055;-85
2022/10/10 04:36:20;;;;;;;6.65;3.55;;;11.00;94.60;;;;;;4937150;29;20055;-85
2022/10/10 04:38:45;;;;;;;6.80;3.53;;;11.00;94.60;;;;;;4958374;28;20471;-85
2022/10/10 04:41:11;;;;;;;5.10;3.13;;;11.00;94.70;;;;;;4971706;28;20024;-86
2022/10/10 04:43:37;;;;;;;6.00;3.83;;;11.00;94.70;;;;;;4962775;28;20509;-86
2022/10/10 04:46:03;;;;;;;9.30;3.80;;;10.90;94.70;;;;;;4955223;29;20028;-85
2022/10/10 04:48:29;;;;;;;7.72;3.50;;;10.90;94.70;;;;;;4971690;28;20038;-85
2022/10/10 04:50:56;;;;;;;5.85;3.33;;;10.90;94.80;;;;;;4956108;29;20129;-85
2022/10/10 04:53:23;;;;;;;6.93;3.47;;;10.80;94.80;;;;;;4956136;29;20077;-85
2022/10/10 04:55:49;;;;;;;7.70;3.20;;;10.80;94.90;;;;;;4956388;28;20027;-85
2022/10/10 04:58:16;;;;;;;6.20;3.40;;;10.80;94.90;;;;;;4943740;29;20046;-85
2022/10/10 05:00:41;;;;;;;8.43;4.10;;;10.70;94.90;;;;;;4965383;28;20031;-85
2022/10/10 05:03:11;;;;;;;7.90;3.50;;;10.70;95.00;;;;;;4946493;28;20481;-85
2022/10/10 05:05:37;;;;;;;6.95;3.58;;;10.70;95.10;;;;;;4951598;28;20028;-83
2022/10/10 05:08:03;;;;;;;7.93;3.83;;;10.70;95.10;;;;;;4935777;29;20043;-85
2022/10/10 05:10:29;;;;;;;7.82;4.00;;;10.60;95.10;;;;;;4941157;29;20508;-84
2022/10/10 05:12:55;;;;;;;9.05;3.53;;;10.60;95.20;;;;;;4936309;28;20023;-85
2022/10/10 05:15:21;;;;;;;7.57;3.95;;;10.60;95.20;;;;;;4936116;29;20019;-82
2022/10/10 05:17:54;;;;;;;6.30;3.85;;;10.60;95.30;;;;;;4938076;29;20098;-80
2022/10/10 05:20:20;;;;;;;8.63;4.10;;;10.60;95.40;;;;;;4986502;28;20030;-82
2022/10/10 05:22:46;;;;;;;7.63;4.45;;;10.50;95.40;;;;;;4952027;28;20031;-82
2022/10/10 05:25:12;;;;;;;7.13;3.60;;;10.50;95.40;;;;;;4935397;28;20122;-83
2022/10/10 05:27:37;;;;;;;6.78;4.10;;;10.50;95.50;;;;;;4967421;28;20027;-83
2022/10/10 05:30:04;;;;;;;14.45;4.00;;;10.50;95.50;;;;;;4935931;29;20027;-82
2022/10/10 05:32:30;;;;;;;7.57;4.00;;;10.40;95.60;;;;;;4953677;28;20027;-83
2022/10/10 05:34:55;;;;;;;9.23;4.35;;;10.40;95.60;;;;;;4935961;29;20034;-83
2022/10/10 05:37:21;;;;;;;7.25;4.10;;;10.40;95.70;;;;;;4964690;28;20035;-83
2022/10/10 05:39:47;;;;;;;11.80;5.45;;;10.40;95.70;;;;;;4960273;28;20040;-83
2022/10/10 05:42:13;;;;;;;7.15;4.10;;;10.40;95.80;;;;;;4949052;28;20074;-83
2022/10/10 05:44:39;;;;;;;8.20;4.55;;;10.30;96.10;;;;;;4920457;29;20127;-83
2022/10/10 05:47:05;;;;;;;8.10;4.65;;;10.30;95.80;;;;;;4922496;29;20114;-85
2022/10/10 05:49:31;;;;;;;8.43;4.40;;;10.30;95.80;;;;;;4922539;29;20115;-86
2022/10/10 05:51:57;;;;;;;6.90;4.30;;;10.30;95.90;;;;;;4936489;29;20498;-86
2022/10/10 05:54:22;;;;;;;8.77;4.10;;;10.20;95.80;;;;;;4919949;28;20038;-86
2022/10/10 05:56:48;;;;;;;6.95;3.90;;;10.20;95.80;;;;;;4917882;29;20462;-85
2022/10/10 05:59:14;;;;;;;7.55;4.55;;;10.20;95.80;;;;;;4934630;29;20035;-86
2022/10/10 06:01:39;;;;;;;10.75;4.50;;;10.10;95.80;;;;;;4933242;29;20020;-85
2022/10/10 06:04:05;;;;;;;7.85;4.25;;;10.10;95.90;;;;;;4947790;28;20426;-83
2022/10/10 06:06:31;;;;;;;10.68;3.92;;;10.10;96.00;;;;;;4938291;29;20524;-83
2022/10/10 06:08:58;;;;;;;9.35;5.30;;;10.10;96.10;;;;;;4924963;29;20122;-83
2022/10/10 06:11:24;;;;;;;10.00;4.28;;;10.10;96.10;;;;;;4940541;28;20412;-83
2022/10/10 06:13:53;;;;;;;8.77;4.78;;;10.10;96.20;;;;;;4946422;29;20024;-85
2022/10/10 06:16:23;;;;;;;8.25;3.95;;;10.00;96.30;;;;;;4937975;29;20020;-84
2022/10/10 06:18:49;;;;;;;10.10;4.55;;;10.00;96.40;;;;;;4921140;29;20126;-84
2022/10/10 06:21:15;;;;;;;9.43;5.10;;;10.00;96.50;;;;;;4938992;29;20051;-83
2022/10/10 06:23:41;;;;;;;12.10;5.72;;;10.00;96.50;;;;;;4941839;29;20449;-83
2022/10/10 06:26:08;;;;;;;8.95;4.93;;;10.00;96.60;;;;;;4937920;28;20030;-82
2022/10/10 06:28:34;;;;;;;9.55;4.88;;;10.00;96.70;;;;;;4934748;29;20044;-83
2022/10/10 06:31:01;;;;;;;10.65;5.07;;;10.00;96.80;;;;;;4922416;29;20027;-84
2022/10/10 06:33:27;;;;;;;11.02;4.88;;;10.00;97.00;;;;;;4922962;29;20028;-85
2022/10/10 06:35:53;;;;;;;13.30;5.55;;;10.00;97.10;;;;;;4950651;28;20039;-84
2022/10/10 06:38:19;;;;;;;10.18;6.28;;;10.00;97.20;;;;;;4941768;29;20061;-84
2022/10/10 06:40:45;;;;;;;10.65;5.70;;;10.00;97.30;;;;;;4943892;29;20030;-84
2022/10/10 06:43:13;;;;;;;10.35;5.97;;;10.00;97.40;;;;;;4934322;28;20046;-85
2022/10/10 06:45:40;;;;;;;9.38;5.57;;;10.00;97.50;;;;;;4953700;28;20122;-84
2022/10/10 06:48:07;;;;;;;11.25;5.30;;;10.00;97.60;;;;;;4939185;28;20094;-84
2022/10/10 06:50:33;;;;;;;7.88;5.10;;;10.00;97.80;;;;;;4940998;28;20466;-83
2022/10/10 06:52:58;;;;;;;9.13;5.05;;;10.00;97.90;;;;;;4957071;28;20027;-84
2022/10/10 06:55:25;;;;;;;10.43;4.65;;;10.10;98.10;;;;;;4969148;28;20020;-85
2022/10/10 06:57:50;;;;;;;10.57;4.50;;;10.10;98.20;;;;;;4928316;28;20070;-83
2022/10/10 07:00:16;;;;;;;9.25;5.03;;;10.10;98.40;;;;;;4970177;28;20054;-83
2022/10/10 07:02:43;;;;;;;10.35;5.50;;;10.10;98.50;;;;;;4954588;28;20499;-82
2022/10/10 07:05:14;;;;;;;11.27;5.60;;;10.10;98.60;;;;;;4940234;28;20428;-82
2022/10/10 07:07:40;;;;;;;12.32;5.53;;;10.10;98.70;;;;;;4953789;28;20019;-83
2022/10/10 07:10:09;;;;;;;8.95;4.63;;;10.20;98.90;;;;;;4938085;28;20027;-82
2022/10/10 07:12:34;;;;;;;8.88;4.60;;;10.20;99.00;;;;;;4950651;28;20058;-82
2022/10/10 07:15:00;;;;;;;10.07;4.75;;;10.20;99.10;;;;;;4953913;28;20046;-82
2022/10/10 07:17:26;;;;;;;8.40;4.72;;;10.20;99.10;;;;;;4953999;28;20031;-81
2022/10/10 07:19:51;;;;;;;10.13;4.97;;;10.30;99.20;;;;;;4953857;28;20024;-81
2022/10/10 07:22:17;;;;;;;7.03;4.60;;;10.30;99.30;;;;;;4936601;28;20058;-82
2022/10/10 07:24:43;;;;;;;10.73;4.65;;;10.40;99.40;;;;;;4953718;28;20143;-82
2022/10/10 07:27:08;;;;;;;9.50;5.13;;;10.40;99.50;;;;;;4953050;28;20038;-82
2022/10/10 07:29:34;;;;;;;13.10;5.97;;;10.50;99.60;;;;;;4955905;28;20037;-83
2022/10/10 07:32:00;;;;;;;8.95;5.25;;;10.50;99.90;;;;;;4938076;28;20073;-83
2022/10/10 07:34:26;;;;;;;11.70;6.10;;;10.50;99.90;;;;;;4943867;28;20118;-82
2022/10/10 07:36:51;;;;;;;11.52;5.82;;;10.60;99.90;;;;;;4953499;28;20031;-82
2022/10/10 07:39:21;;;;;;;12.15;5.97;;;10.70;99.90;;;;;;4949487;28;20035;-81
2022/10/10 07:41:48;;;;;;;14.48;6.38;;;10.80;99.90;;;;;;4952372;28;20081;-82
2022/10/10 07:44:14;;;;;;;10.35;5.88;;;10.80;99.90;;;;;;4952751;28;20106;-82
2022/10/10 07:46:40;;;;;;;9.98;5.50;;;10.90;99.90;;;;;;4955289;28;20026;-83
2022/10/10 07:49:06;;;;;;;11.75;5.80;;;11.00;99.90;;;;;;4965320;28;20020;-82
2022/10/10 07:51:32;;;;;;;11.35;5.80;;;11.10;99.90;;;;;;4953212;29;20042;-81
2022/10/10 07:53:57;;;;;;;7.97;5.90;;;11.10;99.90;;;;;;4938181;28;20027;-81
2022/10/10 07:56:23;;;;;;;12.90;5.80;;;11.20;99.90;;;;;;4937213;29;20392;-81
2022/10/10 07:58:49;;;;;;;8.27;5.65;;;11.20;99.90;;;;;;4937660;28;20031;-80
2022/10/10 08:01:15;;;;;;;13.27;6.57;;;11.30;99.90;;;;;;4967018;28;20027;-81
2022/10/10 08:03:41;;;;;;;10.43;6.15;;;11.40;99.90;;;;;;4984942;28;20023;-81
2022/10/10 08:06:12;;;;;;;16.80;6.88;;;11.40;99.90;;;;;;4967914;28;20130;-81
2022/10/10 08:08:39;;;;;;;13.32;6.72;;;11.50;99.90;;;;;;4985348;28;20492;-82
2022/10/10 08:11:06;;;;;;;12.32;6.13;;;11.50;99.90;;;;;;4968982;28;20471;-82
2022/10/10 08:13:32;;;;;;;12.13;5.90;;;11.60;99.90;;;;;;4950854;28;20178;-81
2022/10/10 08:15:58;;;;;;;10.00;5.95;;;11.70;99.90;;;;;;4937280;29;20529;-81
2022/10/10 08:18:23;;;;;;;10.10;5.60;;;11.70;99.90;;;;;;4964683;28;20034;-81
2022/10/10 08:21:09;;;;;;;11.60;6.38;;;11.80;99.90;;;;;;4965102;28;20031;-82
2022/10/10 08:23:36;;;;;;;10.50;5.43;;;11.90;99.90;;;;;;4954275;29;20429;-81
2022/10/10 08:26:05;;;;;;;11.05;5.88;;;11.90;99.90;;;;;;4953266;28;20022;-82
2022/10/10 08:28:32;;;;;;;10.05;5.63;;;12.00;99.90;;;;;;4950669;28;20066;-82
2022/10/10 08:30:58;;;;;;;11.43;5.70;;;12.10;99.90;;;;;;4936829;28;20032;-83
2022/10/10 08:33:27;;;;;;;11.70;5.53;;;12.10;99.90;;;;;;4937023;29;20037;-81
2022/10/10 08:35:53;;;;;;;10.90;5.47;;;12.20;99.90;;;;;;4951888;29;20070;-81
2022/10/10 08:38:19;;;;;;;8.63;5.65;;;12.20;99.90;;;;;;4969150;28;20469;-82
2022/10/10 08:40:49;;;;;;;12.05;5.82;;;12.30;99.90;;;;;;4937696;29;20069;-82
2022/10/10 08:43:40;;;;;;;10.13;5.28;;;12.30;99.90;;;;;;4960724;28;20093;-81
2022/10/10 08:46:14;;;;;;;;;;;12.30;99.90;;;;;;4970619;28;20440;-82
2022/10/10 08:48:42;;;;;;;9.77;5.85;;;12.30;99.90;;;;;;4954688;28;19917;-81
2022/10/10 08:51:23;;;;;;;11.30;5.95;;;12.40;99.90;;;;;;4956801;28;20495;-82
2022/10/10 08:53:53;;;;;;;9.50;5.63;;;12.50;99.90;;;;;;4951539;28;20026;-82
2022/10/10 08:56:25;;;;;;;12.43;5.87;;;12.60;99.90;;;;;;4973906;28;20070;-81
2022/10/10 08:58:56;;;;;;;11.45;5.97;;;12.60;99.90;;;;;;4963931;28;20539;-81
2022/10/10 09:01:25;;;;;;;12.45;5.90;;;12.60;99.90;;;;;;4971050;28;20027;-81
2022/10/10 09:03:53;;;;;;;11.20;5.43;;;12.70;99.90;;;;;;4957357;28;20073;-82
2022/10/10 09:06:21;;;;;;;9.73;5.75;;;12.70;99.90;;;;;;4959484;28;20472;-81
2022/10/10 09:09:19;;;;;;;13.88;5.88;;;12.80;99.90;;;;;;4995556;28;20026;-82
2022/10/10 09:11:58;;;;;;;10.82;5.88;;;12.90;99.90;;;;;;4961518;28;20061;-81
2022/10/10 09:14:30;;;;;;;9.38;5.45;;;12.90;99.90;;;;;;4973106;28;20448;-81
2022/10/10 09:17:07;;;;;;;9.55;5.38;;;13.00;99.90;;;;;;4957428;28;20054;-80
2022/10/10 09:19:49;;;;;;;13.30;6.50;;;13.10;99.90;;;;;;4974729;28;20484;-81
2022/10/10 09:22:19;;;;;;;17.08;6.00;;;13.20;99.90;;;;;;4956871;28;20168;-82
2022/10/10 09:25:00;;;;;;;10.77;5.68;;;13.30;99.90;;;;;;4964101;28;20027;-81
2022/10/10 09:27:33;;;;;;;9.70;5.93;;;13.40;99.90;;;;;;4974683;28;20046;-82
2022/10/10 09:30:06;;;;;;;10.80;5.32;;;13.50;99.90;;;;;;4957285;28;20023;-80
2022/10/10 09:32:49;;;;;;;10.85;5.50;;;13.50;99.90;;;;;;4947223;28;20483;-81
2022/10/10 09:35:33;;;;;;;13.10;5.53;;;13.60;99.90;;;;;;4955113;28;20031;-80
2022/10/10 09:38:17;;;;;;;12.48;5.43;;;13.70;99.90;;;;;;4973118;28;20019;-82
2022/10/10 09:40:48;;;;;;;10.52;4.82;;;13.80;99.90;;;;;;4957037;28;20492;-82
2022/10/10 09:43:18;;;;;;;8.48;5.75;;;13.90;99.90;;;;;;4956697;28;20070;-82
2022/10/10 09:45:55;;;;;;;10.35;5.10;;;14.00;99.90;;;;;;4956730;28;20023;-83
2022/10/10 09:48:30;;;;;;;11.43;5.50;;;14.10;99.90;;;;;;4941060;28;20026;-83
2022/10/10 09:50:57;;;;;;;11.45;5.30;;;14.10;99.90;;;;;;4956567;28;20122;-83
2022/10/10 09:53:22;;;;;;;12.57;4.95;;;14.20;99.90;;;;;;4947823;28;20031;-83
2022/10/10 09:55:50;;;;;;;9.15;5.45;;;14.30;99.90;;;;;;4937442;28;20476;-83
2022/10/10 09:58:28;;;;;;;9.32;5.25;;;14.40;99.90;;;;;;4941834;28;20042;-83
2022/10/10 10:01:05;;;;;;;12.98;5.85;;;14.50;99.90;;;;;;4973051;28;20041;-82
2022/10/10 10:03:30;;;;;;;32.65;8.07;;;14.60;99.90;;;;;;4958646;28;20019;-82
2022/10/10 10:05:59;;;;;;;11.60;5.28;;;14.60;99.90;;;;;;4976675;28;20038;-82
2022/10/10 10:08:30;;;;;;;12.63;5.65;;;14.70;99.90;;;;;;4957237;28;20094;-84
2022/10/10 10:10:57;;;;;;;12.15;5.88;;;14.80;99.90;;;;;;4960620;28;20105;-83
2022/10/10 10:13:34;;;;;;;10.70;5.13;;;14.90;99.90;;;;;;4960629;28;20031;-82
2022/10/10 10:16:11;;;;;;;10.70;4.72;;;15.00;99.90;;;;;;4960642;28;20473;-82
2022/10/10 10:18:47;;;;;;;13.82;6.43;;;15.10;99.90;;;;;;4960927;28;20109;-82
2022/10/10 10:21:21;;;;;;;12.40;5.63;;;15.10;99.90;;;;;;4978420;28;20449;-82
2022/10/10 10:23:53;;;;;;;13.57;5.03;;;15.20;99.90;;;;;;4972115;28;20027;-82
2022/10/10 10:26:43;;;;;;;9.85;4.72;;;15.30;99.90;;;;;;4981106;28;20042;-82
2022/10/10 10:29:30;;;;;;;13.95;5.43;;;15.40;99.90;;;;;;4980676;28;20018;-82
2022/10/10 10:32:05;;;;;;;9.63;5.03;;;15.50;99.90;;;;;;4980786;28;20026;-83
2022/10/10 10:34:31;;;;;;;10.05;4.95;;;15.50;99.90;;;;;;4996541;28;20026;-83
2022/10/10 10:37:40;;;;;;;9.55;5.05;;;15.60;99.90;;;;;;4995218;28;20041;-83
2022/10/10 10:40:30;;;;;;;12.32;5.55;;;15.60;99.90;;;;;;4888294;29;20037;-82
2022/10/10 10:43:47;;;;;;;12.90;6.43;;;15.70;99.90;;;;;;4879769;29;20041;-80
2022/10/10 10:46:44;;;;;;;8.98;4.90;;;15.80;99.90;;;;;;4963316;28;20026;-81
2022/10/10 10:49:21;;;;;;;11.07;4.65;;;15.80;99.90;;;;;;4991427;28;20097;-81
2022/10/10 10:52:05;;;;;;;8.77;5.30;;;15.90;99.90;;;;;;4978241;28;20027;-81
2022/10/10 10:54:51;;;;;;;10.55;4.80;;;15.90;99.90;;;;;;4974806;28;20061;-80
2022/10/10 10:57:38;;;;;;;11.43;4.80;;;16.00;99.90;;;;;;4966135;28;20031;-81
2022/10/10 11:00:18;;;;;;;10.85;4.30;;;16.10;99.90;;;;;;4988135;28;20023;-81
2022/10/10 11:03:09;;;;;;;10.43;4.75;;;16.10;99.90;;;;;;4977390;28;20377;-81
2022/10/10 11:06:15;;;;;;;9.48;5.10;;;16.20;99.90;;;;;;4959874;28;20030;-81
2022/10/10 11:09:00;;;;;;;12.60;4.60;;;16.30;99.90;;;;;;4943902;28;20117;-83
2022/10/10 11:11:29;;;;;;;13.02;4.82;;;16.40;99.90;;;;;;4965194;28;20101;-82
2022/10/10 11:13:54;;;;;;;9.27;5.10;;;16.50;99.90;;;;;;4991881;28;20050;-82
2022/10/10 11:16:33;;;;;;;10.40;4.20;;;16.50;99.90;;;;;;4975878;28;20031;-82
2022/10/10 11:19:05;;;;;;;10.27;4.90;;;16.60;99.80;;;;;;4959780;28;20030;-82
2022/10/10 11:21:36;;;;;;;8.35;4.28;;;16.70;99.80;;;;;;4977055;28;20038;-82
2022/10/10 11:24:28;;;;;;;9.43;4.50;;;16.80;99.70;;;;;;4959741;28;20054;-83
2022/10/10 11:26:58;;;;;;;9.98;4.32;;;16.90;99.50;;;;;;4959711;28;20019;-82
2022/10/10 11:29:28;;;;;;;11.80;4.25;;;17.00;99.40;;;;;;4959888;28;20388;-82
2022/10/10 11:32:10;;;;;;;11.65;4.78;;;17.10;99.30;;;;;;4990638;28;20045;-84
2022/10/10 11:34:42;;;;;;;8.73;4.30;;;17.20;99.40;;;;;;4971079;28;20022;-82
2022/10/10 11:37:15;;;;;;;8.45;4.75;;;17.20;99.00;;;;;;4982449;28;20034;-83
2022/10/10 11:39:47;;;;;;;13.80;4.45;;;17.30;98.70;;;;;;4984782;28;20503;-83
2022/10/10 11:42:28;;;;;;;8.88;4.25;;;17.40;98.60;;;;;;4972905;28;20033;-83
2022/10/10 11:45:05;;;;;;;;;;;17.50;98.50;;;;;;4989558;28;20424;-83
2022/10/10 11:47:36;;;;;;;11.23;5.35;;;17.60;98.40;;;;;;4968360;28;19912;-82
2022/10/10 11:50:25;;;;;;;;;;;17.60;98.40;;;;;;4996586;28;20026;-83
2022/10/10 11:53:28;;;;;;;10.15;4.55;;;17.70;98.40;;;;;;4961780;28;20355;-84
2022/10/10 11:55:56;;;;;;;9.32;4.85;;;17.70;98.40;;;;;;4976504;28;20023;-84
2022/10/10 11:58:39;;;;;;;12.18;4.93;;;17.80;98.30;;;;;;4959049;28;20054;-84
2022/10/10 12:01:36;;;;;;;13.60;5.22;;;17.80;98.20;;;;;;4974413;28;20030;-84
2022/10/10 12:04:02;;;;;;;14.75;5.65;;;17.90;98.00;;;;;;4977690;28;20021;-84
2022/10/10 12:06:59;;;;;;;12.73;4.93;;;17.90;97.80;;;;;;4958883;28;20042;-82
2022/10/10 12:09:30;;;;;;;9.48;4.70;;;17.90;97.70;;;;;;4902855;28;20117;-83
2022/10/10 12:12:07;;;;;;;;;;;18.00;97.80;;;;;;4976540;28;20030;-83
2022/10/10 12:14:38;;;;;;;9.65;4.18;;;18.00;97.90;;;;;;4958667;28;19913;-83
2022/10/10 12:17:04;;;;;;;9.80;4.40;;;18.10;97.90;;;;;;4957831;28;20026;-82
2022/10/10 12:19:30;;;;;;;11.48;4.45;;;18.10;98.00;;;;;;4942533;28;20022;-83
2022/10/10 12:22:07;;;;;;;9.48;4.97;;;18.20;98.20;;;;;;4958355;28;20031;-84
2022/10/10 12:24:56;;;;;;;14.27;5.07;;;18.30;97.90;;;;;;4988691;28;20030;-82
2022/10/10 12:27:28;;;;;;;12.40;5.10;;;18.40;97.80;;;;;;4983693;23;20103;-81
2022/10/10 12:29:54;;;;;;;7.95;3.95;;;18.40;97.80;;;;;;5018863;28;20167;-82
2022/10/10 12:32:36;;;;;;;9.23;4.53;;;18.50;98.10;;;;;;5011925;28;20443;-82
2022/10/10 12:35:02;;;;;;;11.90;4.70;;;18.50;97.90;;;;;;5013720;28;20068;-82
2022/10/10 12:37:30;;;;;;;10.25;4.63;;;18.60;97.80;;;;;;5001217;28;20053;-81
2022/10/10 12:40:05;;;;;;;9.90;4.10;;;18.60;97.60;;;;;;5011570;28;20022;-81
2022/10/10 12:42:38;;;;;;;6.68;3.95;;;18.60;97.50;;;;;;5009082;28;20060;-82
2022/10/10 12:45:29;;;;;;;14.50;5.50;;;18.70;97.50;;;;;;5019097;28;20414;-83
2022/10/10 12:47:58;;;;;;;8.05;3.90;;;18.70;97.30;;;;;;5026211;28;20022;-82
2022/10/10 12:50:35;;;;;;;10.50;4.50;;;18.70;97.30;;;;;;5005852;28;20033;-81
2022/10/10 12:53:11;;;;;;;12.20;5.68;;;18.70;97.30;;;;;;5007379;28;20018;-81
2022/10/10 12:55:46;;;;;;;10.43;3.95;;;18.70;97.40;;;;;;5008131;28;20026;-82
2022/10/10 12:58:26;;;;;;;9.43;4.68;;;18.70;97.40;;;;;;5027165;28;20036;-82
2022/10/10 13:00:54;;;;;;;11.57;4.53;;;18.70;97.40;;;;;;5009113;28;20084;-83
2022/10/10 13:03:31;;;;;;;10.82;4.45;;;18.70;97.50;;;;;;5032420;28;20032;-83
2022/10/10 13:06:09;;;;;;;11.68;4.68;;;18.70;97.60;;;;;;5027445;28;20018;-82